Aérodrome :
LOGIN :

S'inscrire | Disclaimer

   EN    FR    IT 

 










Légende :    VFR   VFR Marginal   IFR   IFR Intensif   IFR Très Intensif
Visi : 
Plafond : 
>= 8 km
>= 3000ft
5 à 8 km
1000 à 3000 ft
1500m à 5 km
500 à 1000 ft
800 à 1500m
200 à 500 ft
< 800m
< 200 ft
Symboles :   Orages  Brouillard  Fortes neiges  Fortes précipitations  Vent > 20 kt
SIGMETs :   Divers  Orages  Givrage  Turbulence  Onde Orograph.  Cendres Volcan.






- Altitude de l'aérodrome : 53 ft
- Code IATA : HAM


EDDH - Hamburg

DERNIER METAR :
  • 091620Z 05008KT CAVOK 29/13 Q1017 NOSIG

METARs EXPIRÉS :
  • 091550Z 05006KT 010V070 CAVOK 29/12 Q1018 NOSIG
  • 091520Z 05007KT 020V080 CAVOK 29/13 Q1018 NOSIG
  • 091450Z 05008KT CAVOK 29/13 Q1018 NOSIG
  • 091420Z 04009KT CAVOK 30/13 Q1018 NOSIG
  • 091350Z 03008KT 350V060 CAVOK 30/13 Q1018 NOSIG

TAF TAF EDDH
Valide du 09 à 12h jusqu'au 10 à 18h UTC


091100Z 0912/1018 05009KT CAVOK
BECMG 0918/0920 04004KT
BECMG 1009/1011 09009KT
PROB30
TEMPO 1012/1017 12015G30KT TSRA SCT050CB



MET'MAP, la Météo Aéronautique d'un coup d'oeil ! - Copyright ORBIFLY Décembre 2007 - Disclaimer

ORBIFLY MET'MAP TEAM :

Programmation & Développement : Alexandra Zaïnal
Sur une idée originale de : Baudouin d'Aumeries
Assistance à la programmation : Marc-Olivier Méhu
Soutien technique & logistique : Manuel Goepfert

Contact : metmap@orbifly.com




SOURCES & CREDITS :

   NOAA